createdAt,value
2023-04-02T00:01:51.016Z,35.31
2023-04-02T00:04:22.312Z,35.24
2023-04-02T00:06:49.157Z,34.99
2023-04-02T00:09:15.980Z,35.10
2023-04-02T00:11:42.718Z,34.94
2023-04-02T00:14:09.677Z,34.80
2023-04-02T00:16:36.493Z,34.82
2023-04-02T00:19:03.309Z,36.06
2023-04-02T00:21:30.292Z,36.24
2023-04-02T00:23:57.079Z,37.37
2023-04-02T00:26:23.856Z,37.81
2023-04-02T00:28:51.128Z,37.77
2023-04-02T00:31:17.896Z,37.38
2023-04-02T00:33:44.644Z,37.27
2023-04-02T00:36:11.495Z,36.86
2023-04-02T00:38:40.187Z,36.23
2023-04-02T00:41:06.934Z,36.16
2023-04-02T00:43:33.700Z,35.66
2023-04-02T00:46:01.174Z,35.52
2023-04-02T00:48:27.988Z,35.53
2023-04-02T00:50:54.728Z,35.55
2023-04-02T00:53:21.619Z,35.36
2023-04-02T00:55:48.351Z,35.25
2023-04-02T00:58:15.583Z,35.36
2023-04-02T01:00:42.538Z,35.16
2023-04-02T01:03:11.140Z,35.11
2023-04-02T01:05:38.021Z,34.80
2023-04-02T01:08:04.834Z,35.00
2023-04-02T01:10:31.594Z,34.91
2023-04-02T01:12:58.375Z,34.82
2023-04-02T01:15:25.463Z,34.93
2023-04-02T01:17:54.330Z,34.53
2023-04-02T01:20:22.526Z,36.50
2023-04-02T01:22:49.319Z,36.57
2023-04-02T01:25:17.656Z,37.94
2023-04-02T01:27:44.419Z,38.85
2023-04-02T01:30:12.374Z,38.74
2023-04-02T01:32:39.148Z,36.96
2023-04-02T01:35:05.950Z,36.69
2023-04-02T01:37:32.728Z,36.33
2023-04-02T01:39:59.461Z,35.96
2023-04-02T01:42:26.210Z,35.65
2023-04-02T01:44:53.038Z,35.53
2023-04-02T01:47:19.781Z,35.49
2023-04-02T01:49:46.544Z,35.47
2023-04-02T01:52:13.517Z,35.12
2023-04-02T01:54:40.609Z,35.23
2023-04-02T01:57:07.406Z,35.11
2023-04-02T01:59:34.230Z,35.17
2023-04-02T02:02:01.238Z,35.03
2023-04-02T02:04:28.068Z,35.07
2023-04-02T02:06:54.859Z,34.92
2023-04-02T02:09:23.066Z,34.88
2023-04-02T02:11:49.959Z,34.50
2023-04-02T02:14:16.798Z,34.36
2023-04-02T02:16:43.597Z,34.75
2023-04-02T02:19:10.503Z,34.48
2023-04-02T02:21:37.313Z,34.77
2023-04-02T02:24:04.786Z,36.37
2023-04-02T02:26:33.808Z,35.96
2023-04-02T02:29:00.753Z,37.76
2023-04-02T02:31:27.851Z,38.61
2023-04-02T02:33:54.666Z,38.04
2023-04-02T02:36:22.804Z,37.49
2023-04-02T02:38:49.709Z,36.71
2023-04-02T02:41:16.486Z,36.46
2023-04-02T02:43:43.247Z,35.87
2023-04-02T02:46:10.194Z,35.90
2023-04-02T02:48:37.037Z,35.57
2023-04-02T02:51:03.798Z,35.17
2023-04-02T02:53:30.539Z,35.33
2023-04-02T02:55:57.278Z,34.92
2023-04-02T02:58:26.319Z,35.21
2023-04-02T03:00:53.101Z,34.99
2023-04-02T03:03:20.221Z,34.81
2023-04-02T03:05:47.905Z,34.79
2023-04-02T03:08:14.684Z,34.61
2023-04-02T03:10:41.442Z,34.09
2023-04-02T03:13:08.482Z,34.78
2023-04-02T03:15:35.541Z,34.19
2023-04-02T03:18:02.521Z,34.37
2023-04-02T03:20:29.347Z,34.53
2023-04-02T03:22:56.129Z,34.51
2023-04-02T03:25:22.915Z,34.10
2023-04-02T03:27:49.712Z,35.28
2023-04-02T03:30:16.477Z,36.32
2023-04-02T03:32:43.327Z,36.63
2023-04-02T03:35:10.631Z,37.39
2023-04-02T03:37:37.385Z,37.59
2023-04-02T03:40:04.492Z,36.85
2023-04-02T03:42:31.283Z,36.27
2023-04-02T03:44:58.092Z,36.04
2023-04-02T03:47:25.010Z,35.49
2023-04-02T03:49:51.781Z,35.52
2023-04-02T03:52:18.561Z,35.17
2023-04-02T03:54:54.226Z,35.12
2023-04-02T03:57:21.687Z,34.89
2023-04-02T03:59:48.451Z,35.18
2023-04-02T04:02:15.719Z,34.90
2023-04-02T04:04:42.510Z,34.66
2023-04-02T04:07:09.263Z,34.31
2023-04-02T04:09:36.193Z,34.45
2023-04-02T04:12:03.032Z,34.54
2023-04-02T04:14:29.815Z,34.37
2023-04-02T04:16:56.587Z,34.40
2023-04-02T04:19:23.414Z,34.36
2023-04-02T04:21:50.175Z,34.35
2023-04-02T04:24:17.085Z,34.41
2023-04-02T04:26:43.885Z,34.15
2023-04-02T04:29:12.287Z,34.09
2023-04-02T04:31:39.415Z,34.33
2023-04-02T04:34:06.326Z,34.18
2023-04-02T04:36:33.123Z,34.98
2023-04-02T04:38:59.907Z,35.73
2023-04-02T04:41:26.671Z,36.17
2023-04-02T04:43:53.461Z,38.06
2023-04-02T04:46:20.380Z,38.36
2023-04-02T04:48:47.196Z,38.00
2023-04-02T04:51:13.998Z,37.21
2023-04-02T04:53:40.746Z,36.09
2023-04-02T04:56:18.634Z,35.42
2023-04-02T04:58:46.600Z,35.18
2023-04-02T05:01:13.403Z,35.17
2023-04-02T05:03:40.299Z,35.01
2023-04-02T05:06:07.086Z,34.70
2023-04-02T05:08:33.869Z,34.77
2023-04-02T05:11:00.629Z,34.67
2023-04-02T05:13:27.721Z,34.32
2023-04-02T05:15:54.700Z,34.57
2023-04-02T05:18:21.531Z,34.53
2023-04-02T05:20:48.268Z,34.38
2023-04-02T05:23:15.263Z,34.35
2023-04-02T05:25:42.014Z,34.08
2023-04-02T05:28:08.751Z,33.87
2023-04-02T05:30:35.513Z,34.14
2023-04-02T05:33:04.654Z,34.08
2023-04-02T05:35:31.868Z,33.86
2023-04-02T05:37:58.768Z,33.96
2023-04-02T05:40:25.557Z,33.81
2023-04-02T05:42:55.699Z,33.99
2023-04-02T05:45:22.533Z,33.95
2023-04-02T05:47:49.334Z,33.99
2023-04-02T05:50:16.899Z,35.05
2023-04-02T05:52:43.644Z,35.50
2023-04-02T05:55:10.548Z,36.13
2023-04-02T05:57:44.624Z,37.43
2023-04-02T06:00:13.761Z,37.20
2023-04-02T06:02:41.319Z,36.55
2023-04-02T06:05:08.149Z,35.54
2023-04-02T06:07:34.904Z,35.25
2023-04-02T06:10:04.967Z,35.35
2023-04-02T06:12:31.752Z,35.00
2023-04-02T06:14:58.552Z,34.49
2023-04-02T06:17:25.482Z,34.57
2023-04-02T06:19:52.391Z,34.36
2023-04-02T06:22:19.334Z,34.43
2023-04-02T06:24:46.144Z,34.04
2023-04-02T06:27:12.890Z,33.98
2023-04-02T06:29:40.067Z,34.06
2023-04-02T06:32:06.946Z,34.17
2023-04-02T06:34:33.765Z,33.93
2023-04-02T06:37:00.682Z,34.14
2023-04-02T06:39:27.500Z,33.96
2023-04-02T06:41:54.241Z,34.04
2023-04-02T06:44:21.268Z,33.96
2023-04-02T06:46:50.559Z,33.76
2023-04-02T06:49:19.135Z,33.72
2023-04-02T06:51:45.975Z,33.84
2023-04-02T06:54:12.721Z,34.22
2023-04-02T06:56:39.460Z,35.67
2023-04-02T06:59:07.418Z,35.95
2023-04-02T07:01:34.339Z,37.99
2023-04-02T07:04:01.271Z,37.65
2023-04-02T07:06:28.177Z,36.33
2023-04-02T07:08:54.960Z,35.52
2023-04-02T07:11:21.877Z,35.06
2023-04-02T07:13:48.673Z,35.15
2023-04-02T07:16:15.679Z,34.63
2023-04-02T07:18:42.695Z,34.42
2023-04-02T07:21:09.472Z,34.52
2023-04-02T07:23:36.296Z,34.39
2023-04-02T07:26:03.327Z,34.41
2023-04-02T07:28:30.342Z,34.20
2023-04-02T07:30:57.099Z,34.19
2023-04-02T07:33:23.839Z,33.82
2023-04-02T07:35:50.824Z,33.91
2023-04-02T07:38:17.586Z,33.96
2023-04-02T07:40:44.343Z,33.88
2023-04-02T07:43:11.294Z,33.48
2023-04-02T07:45:38.324Z,33.68
2023-04-02T07:48:05.589Z,33.62
2023-04-02T07:50:32.438Z,33.58
2023-04-02T07:52:59.209Z,33.43
2023-04-02T07:55:25.962Z,33.41
2023-04-02T07:57:52.719Z,35.43
2023-04-02T08:00:20.508Z,37.26
2023-04-02T08:02:47.356Z,39.31
2023-04-02T08:05:14.527Z,38.58
2023-04-02T08:07:41.522Z,36.95
2023-04-02T08:10:08.289Z,35.57
2023-04-02T08:12:35.337Z,35.22
2023-04-02T08:15:02.152Z,35.05
2023-04-02T08:17:31.338Z,34.72
2023-04-02T08:20:00.981Z,34.40
2023-04-02T08:22:27.804Z,34.38
2023-04-02T08:24:54.556Z,34.38
2023-04-02T08:27:21.807Z,33.93
2023-04-02T08:29:48.562Z,34.27
2023-04-02T08:32:18.499Z,34.04
2023-04-02T08:34:45.401Z,33.79
2023-04-02T08:37:12.148Z,33.88
2023-04-02T08:39:38.919Z,33.74
2023-04-02T08:42:05.826Z,33.80
2023-04-02T08:44:32.622Z,33.91
2023-04-02T08:46:59.372Z,33.38
2023-04-02T08:49:26.928Z,33.75
2023-04-02T08:51:53.683Z,33.37
2023-04-02T08:54:20.426Z,33.21
2023-04-02T08:56:47.262Z,33.29
2023-04-02T08:59:14.031Z,33.19
2023-04-02T09:01:41.409Z,33.14
2023-04-02T09:04:08.289Z,34.83
2023-04-02T09:06:35.155Z,35.73
2023-04-02T09:09:02.034Z,36.16
2023-04-02T09:11:28.906Z,37.34
2023-04-02T09:13:55.899Z,37.12
2023-04-02T09:16:23.008Z,35.59
2023-04-02T09:18:49.837Z,35.41
2023-04-02T09:21:17.218Z,34.75
2023-04-02T09:23:43.969Z,34.84
2023-04-02T09:26:10.738Z,34.12
2023-04-02T09:28:37.466Z,34.14
2023-04-02T09:31:06.656Z,34.14
2023-04-02T09:33:34.563Z,33.92
2023-04-02T09:36:01.381Z,34.07
2023-04-02T09:38:30.722Z,33.89
2023-04-02T09:40:58.526Z,33.77
2023-04-02T09:43:25.421Z,33.84
2023-04-02T09:45:52.213Z,33.70
2023-04-02T09:48:19.212Z,33.67
2023-04-02T09:50:46.075Z,33.30
2023-04-02T09:53:12.833Z,33.52
2023-04-02T09:55:39.604Z,33.52
2023-04-02T09:58:06.985Z,33.28
2023-04-02T10:00:34.215Z,33.20
2023-04-02T10:03:01.356Z,33.50
2023-04-02T10:05:40.041Z,35.82
2023-04-02T10:08:08.358Z,36.40
2023-04-02T10:10:35.401Z,38.08
2023-04-02T10:13:02.380Z,37.37
2023-04-02T10:15:29.361Z,35.65
2023-04-02T10:17:56.316Z,34.96
2023-04-02T10:20:23.079Z,34.85
2023-04-02T10:22:50.110Z,34.69
2023-04-02T10:25:16.956Z,34.33
2023-04-02T10:27:44.489Z,34.34
2023-04-02T10:30:11.362Z,34.14
2023-04-02T10:32:38.227Z,33.99
2023-04-02T10:35:05.144Z,33.98
2023-04-02T10:37:32.135Z,33.92
2023-04-02T10:39:58.870Z,33.58
2023-04-02T10:42:25.605Z,33.63
2023-04-02T10:44:52.397Z,33.79
2023-04-02T10:47:19.174Z,33.60
2023-04-02T10:49:45.952Z,33.17
2023-04-02T10:52:13.574Z,33.20
2023-04-02T10:54:40.572Z,33.45
2023-04-02T10:57:07.391Z,33.53
2023-04-02T10:59:34.215Z,33.23
2023-04-02T11:02:00.998Z,33.28
2023-04-02T11:04:27.823Z,34.87
2023-04-02T11:07:07.269Z,35.52
2023-04-02T11:09:40.450Z,37.72
2023-04-02T11:12:07.225Z,37.54
2023-04-02T11:14:34.178Z,36.01
2023-04-02T11:17:02.661Z,35.18
2023-04-02T11:19:29.527Z,34.76
2023-04-02T11:22:00.258Z,34.40
2023-04-02T11:24:29.962Z,34.22
2023-04-02T11:26:56.739Z,34.13
2023-04-02T11:29:23.527Z,34.17
2023-04-02T11:31:50.835Z,34.12
2023-04-02T11:34:17.711Z,33.87
2023-04-02T11:36:44.467Z,33.68
2023-04-02T11:39:17.324Z,33.55
2023-04-02T11:41:44.545Z,33.63
2023-04-02T11:44:11.318Z,33.61
2023-04-02T11:46:38.075Z,33.64
2023-04-02T11:49:06.236Z,33.41
2023-04-02T11:51:33.041Z,33.00
2023-04-02T11:54:00.253Z,33.27
2023-04-02T11:56:27.534Z,33.37
2023-04-02T11:58:54.286Z,33.18
2023-04-02T12:01:21.269Z,33.02
2023-04-02T12:03:48.039Z,33.28
2023-04-02T12:06:16.193Z,33.79
2023-04-02T12:08:57.129Z,36.20
2023-04-02T12:11:24.593Z,36.12
2023-04-02T12:13:51.457Z,37.20
2023-04-02T12:16:18.293Z,36.82
2023-04-02T12:18:46.595Z,35.17
2023-04-02T12:21:13.339Z,34.74
2023-04-02T12:23:40.113Z,34.37
2023-04-02T12:26:06.931Z,34.36
2023-04-02T12:28:33.868Z,33.87
2023-04-02T12:31:00.693Z,33.75
2023-04-02T12:33:27.703Z,33.56
2023-04-02T12:35:54.475Z,33.68
2023-04-02T12:38:21.418Z,33.60
2023-04-02T12:40:48.181Z,33.73
2023-04-02T12:43:15.057Z,33.61
2023-04-02T12:45:42.702Z,33.08
2023-04-02T12:48:09.528Z,33.20
2023-04-02T12:50:36.459Z,33.08
2023-04-02T12:53:03.381Z,33.32
2023-04-02T12:55:31.665Z,33.39
2023-04-02T12:57:58.405Z,32.92
2023-04-02T13:00:25.550Z,33.24
2023-04-02T13:02:52.391Z,33.05
2023-04-02T13:05:19.153Z,33.31
2023-04-02T13:07:45.924Z,34.27
2023-04-02T13:10:12.721Z,36.05
2023-04-02T13:12:39.538Z,35.96
2023-04-02T13:15:06.389Z,37.31
2023-04-02T13:17:33.159Z,36.77
2023-04-02T13:20:00.137Z,35.58
2023-04-02T13:22:28.381Z,34.91
2023-04-02T13:24:55.144Z,34.69
2023-04-02T13:27:21.922Z,34.21
2023-04-02T13:29:48.680Z,34.18
2023-04-02T13:32:15.521Z,34.06
2023-04-02T13:34:42.295Z,33.79
2023-04-02T13:37:09.061Z,33.79
2023-04-02T13:39:35.879Z,33.65
2023-04-02T13:42:02.704Z,33.36
2023-04-02T13:44:29.524Z,33.15
2023-04-02T13:46:56.342Z,33.38
2023-04-02T13:49:23.081Z,33.37
2023-04-02T13:51:49.905Z,33.11
2023-04-02T13:54:16.821Z,33.11
2023-04-02T13:56:43.586Z,33.12
2023-04-02T13:59:10.446Z,33.20
2023-04-02T14:01:37.376Z,32.98
2023-04-02T14:04:05.634Z,33.05
2023-04-02T14:06:32.528Z,32.77
2023-04-02T14:08:59.415Z,33.80
2023-04-02T14:11:26.219Z,36.12
2023-04-02T14:13:52.985Z,36.93
2023-04-02T14:16:19.842Z,38.09
2023-04-02T14:18:46.593Z,36.50
2023-04-02T14:21:13.392Z,34.84
2023-04-02T14:23:40.356Z,34.65
2023-04-02T14:26:07.123Z,34.27
2023-04-02T14:28:38.073Z,34.12
2023-04-02T14:31:04.907Z,33.80
2023-04-02T14:33:31.663Z,33.60
2023-04-02T14:35:58.450Z,33.72
2023-04-02T14:38:25.356Z,33.44
2023-04-02T14:40:52.143Z,33.51
2023-04-02T14:43:18.904Z,33.14
2023-04-02T14:45:45.658Z,33.42
2023-04-02T14:48:12.401Z,33.00
2023-04-02T14:50:39.202Z,32.92
2023-04-02T14:53:05.983Z,33.24
2023-04-02T14:55:32.807Z,32.90
2023-04-02T14:57:59.800Z,33.12
2023-04-02T15:00:27.361Z,32.79
2023-04-02T15:02:54.383Z,32.50
2023-04-02T15:05:21.250Z,32.87
2023-04-02T15:07:48.167Z,32.69
2023-04-02T15:10:15.676Z,33.06
2023-04-02T15:12:42.572Z,36.54
2023-04-02T15:15:09.354Z,36.73
2023-04-02T15:17:36.126Z,37.87
2023-04-02T15:20:02.929Z,36.34
2023-04-02T15:22:29.691Z,35.17
2023-04-02T15:24:56.442Z,34.39
2023-04-02T15:27:25.502Z,34.22
2023-04-02T15:29:52.835Z,33.81
2023-04-02T15:32:19.599Z,33.47
2023-04-02T15:34:46.339Z,33.66
2023-04-02T15:37:13.450Z,33.76
2023-04-02T15:39:40.401Z,33.64
2023-04-02T15:42:07.178Z,33.54
2023-04-02T15:44:33.965Z,33.24
2023-04-02T15:47:00.840Z,33.18
2023-04-02T15:49:27.604Z,33.30
2023-04-02T15:51:54.376Z,33.16
2023-04-02T15:54:21.400Z,32.84
2023-04-02T15:56:48.186Z,32.77
2023-04-02T15:59:14.967Z,32.49
2023-04-02T16:01:41.849Z,32.75
2023-04-02T16:04:08.927Z,32.86
2023-04-02T16:06:35.780Z,32.85
2023-04-02T16:09:02.593Z,32.90
2023-04-02T16:11:29.340Z,35.15
2023-04-02T16:13:56.166Z,36.58
2023-04-02T16:16:23.012Z,37.89
2023-04-02T16:18:49.822Z,37.00
2023-04-02T16:21:16.866Z,35.25
2023-04-02T16:23:43.622Z,34.61
2023-04-02T16:26:12.832Z,34.21
2023-04-02T16:28:39.635Z,34.00
2023-04-02T16:31:06.402Z,33.64
2023-04-02T16:33:33.222Z,33.77
2023-04-02T16:36:00.038Z,33.53
2023-04-02T16:38:26.807Z,33.28
2023-04-02T16:41:06.994Z,33.40
2023-04-02T16:43:34.948Z,33.29
2023-04-02T16:46:01.720Z,33.03
2023-04-02T16:48:28.588Z,32.82
2023-04-02T16:50:55.501Z,32.93
2023-04-02T16:53:22.289Z,32.85
2023-04-02T16:55:49.048Z,32.96
2023-04-02T16:58:16.106Z,33.07
2023-04-02T17:00:42.892Z,32.82
2023-04-02T17:03:09.858Z,32.82
2023-04-02T17:05:36.869Z,32.93
2023-04-02T17:08:03.705Z,32.71
2023-04-02T17:10:30.669Z,32.98
2023-04-02T17:12:57.499Z,35.25
2023-04-02T17:15:28.199Z,35.12
2023-04-02T17:17:55.505Z,37.27
2023-04-02T17:20:22.309Z,37.00
2023-04-02T17:22:49.103Z,35.44
2023-04-02T17:25:15.906Z,34.59
2023-04-02T17:27:42.680Z,34.19
2023-04-02T17:30:09.528Z,34.00
2023-04-02T17:32:36.869Z,33.58
2023-04-02T17:35:03.704Z,33.35
2023-04-02T17:37:30.451Z,33.12
2023-04-02T17:39:57.192Z,33.09
2023-04-02T17:42:23.940Z,33.13
2023-04-02T17:44:50.755Z,33.22
2023-04-02T17:47:17.501Z,33.17
2023-04-02T17:49:44.271Z,33.04
2023-04-02T17:52:11.465Z,32.84
2023-04-02T17:54:38.264Z,32.86
2023-04-02T17:57:05.058Z,32.78
2023-04-02T17:59:31.848Z,32.37
2023-04-02T18:01:58.636Z,32.77
2023-04-02T18:04:25.408Z,32.81
2023-04-02T18:06:52.158Z,32.76
2023-04-02T18:09:19.205Z,32.32
2023-04-02T18:11:46.002Z,32.82
2023-04-02T18:14:12.744Z,34.93
2023-04-02T18:16:39.559Z,34.89
2023-04-02T18:19:08.241Z,36.64
2023-04-02T18:21:34.989Z,36.28
2023-04-02T18:24:01.796Z,35.11
2023-04-02T18:26:28.603Z,34.24
2023-04-02T18:28:55.442Z,34.12
2023-04-02T18:31:22.264Z,33.77
2023-04-02T18:33:49.433Z,33.34
2023-04-02T18:36:16.300Z,33.57
2023-04-02T18:38:43.158Z,33.14
2023-04-02T18:41:09.943Z,33.12
2023-04-02T18:43:36.735Z,33.05
2023-04-02T18:46:05.126Z,32.85
2023-04-02T18:48:31.987Z,33.00
2023-04-02T18:50:58.741Z,32.94
2023-04-02T18:53:25.712Z,32.85
2023-04-02T18:55:52.521Z,33.00
2023-04-02T18:58:19.328Z,32.75
2023-04-02T19:00:46.090Z,32.53
2023-04-02T19:03:13.037Z,32.77
2023-04-02T19:05:40.721Z,32.75
2023-04-02T19:08:07.532Z,32.53
2023-04-02T19:10:34.297Z,32.58
2023-04-02T19:13:01.380Z,34.73
2023-04-02T19:15:28.176Z,34.26
2023-04-02T19:17:54.991Z,36.11
2023-04-02T19:20:21.813Z,36.73
2023-04-02T19:22:48.565Z,34.87
2023-04-02T19:25:15.700Z,34.53
2023-04-02T19:27:42.448Z,33.85
2023-04-02T19:30:09.492Z,33.66
2023-04-02T19:32:36.326Z,33.33
2023-04-02T19:35:03.147Z,33.30
2023-04-02T19:37:29.874Z,33.25
2023-04-02T19:39:57.321Z,33.03
2023-04-02T19:42:24.084Z,33.00
2023-04-02T19:44:50.854Z,33.16
2023-04-02T19:47:17.627Z,33.14
2023-04-02T19:49:44.390Z,32.74
2023-04-02T19:52:11.154Z,32.79
2023-04-02T19:54:38.704Z,32.89
2023-04-02T19:57:05.703Z,32.76
2023-04-02T19:59:32.639Z,32.73
2023-04-02T20:01:59.419Z,32.33
2023-04-02T20:04:26.229Z,32.51
2023-04-02T20:06:54.263Z,32.44
2023-04-02T20:09:21.770Z,32.25
2023-04-02T20:11:48.844Z,32.58
2023-04-02T20:14:15.674Z,34.37
2023-04-02T20:16:44.531Z,33.95
2023-04-02T20:19:12.510Z,36.01
2023-04-02T20:21:39.351Z,36.46
2023-04-02T20:24:06.110Z,35.00
2023-04-02T20:26:32.874Z,34.23
2023-04-02T20:28:59.635Z,34.01
2023-04-02T20:31:26.546Z,33.69
2023-04-02T20:33:53.486Z,33.66
2023-04-02T20:36:20.275Z,33.50
2023-04-02T20:38:47.034Z,33.24
2023-04-02T20:41:15.964Z,33.02
2023-04-02T20:43:42.855Z,32.86
2023-04-02T20:46:11.704Z,32.96
2023-04-02T20:48:39.248Z,32.85
2023-04-02T20:51:06.043Z,32.69
2023-04-02T20:53:33.552Z,32.65
2023-04-02T20:56:00.305Z,32.27
2023-04-02T20:58:27.080Z,32.84
2023-04-02T21:00:53.867Z,32.48
2023-04-02T21:03:20.647Z,32.33
2023-04-02T21:05:47.450Z,32.51
2023-04-02T21:08:14.237Z,32.45
2023-04-02T21:10:41.116Z,32.39
2023-04-02T21:13:07.878Z,34.01
2023-04-02T21:15:34.937Z,34.01
2023-04-02T21:18:02.219Z,34.83
2023-04-02T21:20:29.083Z,35.80
2023-04-02T21:22:55.949Z,35.50
2023-04-02T21:25:22.724Z,36.21
2023-04-02T21:27:49.556Z,35.36
2023-04-02T21:30:16.365Z,34.56
2023-04-02T21:32:43.210Z,34.18
2023-04-02T21:35:10.148Z,33.68
2023-04-02T21:37:36.910Z,33.54
2023-04-02T21:40:03.657Z,33.25
2023-04-02T21:42:30.462Z,33.09
2023-04-02T21:44:57.312Z,33.19
2023-04-02T21:47:24.807Z,33.02
2023-04-02T21:49:51.568Z,32.66
2023-04-02T21:52:18.351Z,32.82
2023-04-02T21:54:45.117Z,32.75
2023-04-02T21:57:11.892Z,32.70
2023-04-02T21:59:38.729Z,32.69
2023-04-02T22:02:06.803Z,32.56
2023-04-02T22:04:33.704Z,32.28
2023-04-02T22:07:00.761Z,32.56
2023-04-02T22:09:27.545Z,32.28
2023-04-02T22:11:54.455Z,32.43
2023-04-02T22:14:21.400Z,32.21
2023-04-02T22:16:48.224Z,32.33
2023-04-02T22:19:15.067Z,32.39
2023-04-02T22:21:41.892Z,32.12
2023-04-02T22:24:11.444Z,32.57
2023-04-02T22:26:38.253Z,34.32
2023-04-02T22:29:05.027Z,33.99
2023-04-02T22:31:33.072Z,34.93
2023-04-02T22:34:00.131Z,35.69
2023-04-02T22:36:26.997Z,34.75
2023-04-02T22:38:53.755Z,34.48
2023-04-02T22:41:21.441Z,33.92
2023-04-02T22:43:48.232Z,33.68
2023-04-02T22:46:15.094Z,33.72
2023-04-02T22:48:42.238Z,33.34
2023-04-02T22:51:09.162Z,33.07
2023-04-02T22:53:36.498Z,32.89
2023-04-02T22:56:03.439Z,32.64
2023-04-02T22:58:30.224Z,32.73
2023-04-02T23:00:56.966Z,32.71
2023-04-02T23:03:23.732Z,32.39
2023-04-02T23:05:50.610Z,32.50
2023-04-02T23:08:17.372Z,32.69
2023-04-02T23:10:44.124Z,32.50
2023-04-02T23:13:10.969Z,32.40
2023-04-02T23:15:37.786Z,32.21
2023-04-02T23:18:04.617Z,32.19
2023-04-02T23:20:31.399Z,32.14
2023-04-02T23:22:58.129Z,32.32
2023-04-02T23:25:24.899Z,32.41
2023-04-02T23:27:51.675Z,32.31
2023-04-02T23:30:18.422Z,33.79
2023-04-02T23:32:45.200Z,34.63
2023-04-02T23:35:11.966Z,35.51
2023-04-02T23:37:38.757Z,36.32
2023-04-02T23:40:06.020Z,34.78
2023-04-02T23:42:32.874Z,34.40
2023-04-02T23:44:59.650Z,33.55
2023-04-02T23:47:26.473Z,33.28
2023-04-02T23:49:53.281Z,33.32
2023-04-02T23:52:20.129Z,33.11
2023-04-02T23:54:47.015Z,32.95
2023-04-02T23:57:14.908Z,32.64
2023-04-02T23:59:41.713Z,32.48
